sensor_id;sensor_type;location;lat;lon;timestamp;pressure;altitude;pressure_sealevel;temperature;humidity
81181;BME280;70650;51.408;7.132;2023-07-13T00:01:24;100411.00;;;16.01;60.94
81181;BME280;70650;51.408;7.132;2023-07-13T00:03:49;100409.56;;;16.08;60.45
81181;BME280;70650;51.408;7.132;2023-07-13T00:06:15;100416.22;;;16.02;61.12
81181;BME280;70650;51.408;7.132;2023-07-13T00:08:40;100412.44;;;16.05;60.56
81181;BME280;70650;51.408;7.132;2023-07-13T00:11:06;100415.50;;;16.00;60.68
81181;BME280;70650;51.408;7.132;2023-07-13T00:13:32;100421.03;;;15.97;60.50
81181;BME280;70650;51.408;7.132;2023-07-13T00:15:58;100421.28;;;15.94;60.29
81181;BME280;70650;51.408;7.132;2023-07-13T00:18:23;100415.50;;;16.00;60.35
81181;BME280;70650;51.408;7.132;2023-07-13T00:20:49;100425.41;;;15.98;61.14
81181;BME280;70650;51.408;7.132;2023-07-13T00:23:15;100416.22;;;16.02;60.31
81181;BME280;70650;51.408;7.132;2023-07-13T00:25:40;100416.72;;;16.07;59.89
81181;BME280;70650;51.408;7.132;2023-07-13T00:28:05;100419.09;;;15.99;61.51
81181;BME280;70650;51.408;7.132;2023-07-13T00:30:31;100410.88;;;16.02;60.16
81181;BME280;70650;51.408;7.132;2023-07-13T00:32:56;100409.91;;;16.03;60.29
81181;BME280;70650;51.408;7.132;2023-07-13T00:35:21;100408.69;;;15.96;60.29
81181;BME280;70650;51.408;7.132;2023-07-13T00:37:47;100413.53;;;16.02;60.21
81181;BME280;70650;51.408;7.132;2023-07-13T00:40:14;100413.88;;;15.98;60.29
81181;BME280;70650;51.408;7.132;2023-07-13T00:42:40;100416.63;;;15.85;61.77
81181;BME280;70650;51.408;7.132;2023-07-13T00:47:38;100411.97;;;15.76;61.71
81181;BME280;70650;51.408;7.132;2023-07-13T00:50:05;100415.16;;;15.81;61.41
81181;BME280;70650;51.408;7.132;2023-07-13T00:52:31;100416.25;;;15.78;61.40
81181;BME280;70650;51.408;7.132;2023-07-13T00:54:57;100416.34;;;15.77;61.64
81181;BME280;70650;51.408;7.132;2023-07-13T00:57:23;100404.31;;;15.71;61.88
81181;BME280;70650;51.408;7.132;2023-07-13T00:59:52;100405.41;;;15.69;61.81
81181;BME280;70650;51.408;7.132;2023-07-13T01:02:20;100416.19;;;15.67;62.13
81181;BME280;70650;51.408;7.132;2023-07-13T01:04:46;100417.25;;;15.64;62.62
81181;BME280;70650;51.408;7.132;2023-07-13T01:07:12;100413.41;;;15.69;62.68
81181;BME280;70650;51.408;7.132;2023-07-13T01:09:38;100401.16;;;15.66;62.38
81181;BME280;70650;51.408;7.132;2023-07-13T01:12:03;100405.41;;;15.69;62.51
81181;BME280;70650;51.408;7.132;2023-07-13T01:14:29;100407.94;;;15.70;62.07
81181;BME280;70650;51.408;7.132;2023-07-13T01:16:54;100402.53;;;15.72;62.07
81181;BME280;70650;51.408;7.132;2023-07-13T01:19:41;100404.38;;;15.82;61.27
81181;BME280;70650;51.408;7.132;2023-07-13T01:22:10;100399.41;;;15.78;61.55
81181;BME280;70650;51.408;7.132;2023-07-13T01:24:37;100405.91;;;15.74;61.73
81181;BME280;70650;51.408;7.132;2023-07-13T01:27:03;100401.69;;;15.82;61.38
81181;BME280;70650;51.408;7.132;2023-07-13T01:29:30;100401.81;;;15.81;61.93
81181;BME280;70650;51.408;7.132;2023-07-13T01:31:56;100405.19;;;15.72;62.07
81181;BME280;70650;51.408;7.132;2023-07-13T01:34:21;100407.84;;;15.72;62.34
81181;BME280;70650;51.408;7.132;2023-07-13T01:36:46;100403.47;;;15.71;61.41
81181;BME280;70650;51.408;7.132;2023-07-13T01:39:12;100401.03;;;15.68;62.12
81181;BME280;70650;51.408;7.132;2023-07-13T01:41:37;100413.09;;;15.60;62.10
81181;BME280;70650;51.408;7.132;2023-07-13T01:44:02;100407.25;;;15.55;62.88
81181;BME280;70650;51.408;7.132;2023-07-13T01:46:28;100410.78;;;15.56;63.02
81181;BME280;70650;51.408;7.132;2023-07-13T01:48:54;100409.06;;;15.55;62.51
81181;BME280;70650;51.408;7.132;2023-07-13T01:51:20;100415.25;;;15.55;62.40
81181;BME280;70650;51.408;7.132;2023-07-13T01:53:46;100414.41;;;15.55;63.58
81181;BME280;70650;51.408;7.132;2023-07-13T01:56:11;100415.47;;;15.52;62.56
81181;BME280;70650;51.408;7.132;2023-07-13T01:58:36;100417.84;;;15.44;62.76
81181;BME280;70650;51.408;7.132;2023-07-13T02:01:01;100420.84;;;15.40;62.94
81181;BME280;70650;51.408;7.132;2023-07-13T02:03:27;100425.34;;;15.39;63.75
81181;BME280;70650;51.408;7.132;2023-07-13T02:05:52;100424.56;;;15.37;63.16
81181;BME280;70650;51.408;7.132;2023-07-13T02:08:17;100423.00;;;15.34;63.61
81181;BME280;70650;51.408;7.132;2023-07-13T02:10:43;100426.75;;;15.32;63.40
81181;BME280;70650;51.408;7.132;2023-07-13T02:13:08;100424.34;;;15.40;63.32
81181;BME280;70650;51.408;7.132;2023-07-13T02:15:33;100422.88;;;15.36;63.46
81181;BME280;70650;51.408;7.132;2023-07-13T02:17:58;100423.13;;;15.33;63.97
81181;BME280;70650;51.408;7.132;2023-07-13T02:20:25;100420.53;;;15.31;63.78
81181;BME280;70650;51.408;7.132;2023-07-13T02:22:51;100428.72;;;15.41;63.76
81181;BME280;70650;51.408;7.132;2023-07-13T02:25:17;100415.53;;;15.40;63.75
81181;BME280;70650;51.408;7.132;2023-07-13T02:27:42;100427.47;;;15.34;64.33
81181;BME280;70650;51.408;7.132;2023-07-13T02:30:08;100431.31;;;15.30;64.42
81181;BME280;70650;51.408;7.132;2023-07-13T02:32:33;100424.00;;;15.21;64.30
81181;BME280;70650;51.408;7.132;2023-07-13T02:35:00;100424.53;;;15.13;64.83
81181;BME280;70650;51.408;7.132;2023-07-13T02:37:25;100421.78;;;15.15;65.23
81181;BME280;70650;51.408;7.132;2023-07-13T02:39:51;100419.13;;;15.15;65.32
81181;BME280;70650;51.408;7.132;2023-07-13T02:42:16;100416.66;;;15.11;65.32
81181;BME280;70650;51.408;7.132;2023-07-13T02:44:41;100425.91;;;15.19;65.01
81181;BME280;70650;51.408;7.132;2023-07-13T02:47:07;100425.38;;;15.14;65.31
81181;BME280;70650;51.408;7.132;2023-07-13T02:49:32;100417.06;;;15.18;64.69
81181;BME280;70650;51.408;7.132;2023-07-13T02:51:57;100417.19;;;15.17;65.11
81181;BME280;70650;51.408;7.132;2023-07-13T02:54:23;100417.00;;;15.07;65.84
81181;BME280;70650;51.408;7.132;2023-07-13T02:56:48;100428.41;;;14.96;66.28
81181;BME280;70650;51.408;7.132;2023-07-13T02:59:14;100425.84;;;14.95;66.57
81181;BME280;70650;51.408;7.132;2023-07-13T03:01:39;100431.47;;;15.03;65.84
81181;BME280;70650;51.408;7.132;2023-07-13T03:04:05;100427.34;;;14.99;66.17
81181;BME280;70650;51.408;7.132;2023-07-13T03:06:31;100433.44;;;14.88;66.77
81181;BME280;70650;51.408;7.132;2023-07-13T03:08:57;100434.59;;;14.84;66.85
81181;BME280;70650;51.408;7.132;2023-07-13T03:11:23;100436.53;;;14.82;67.36
81181;BME280;70650;51.408;7.132;2023-07-13T03:13:48;100430.00;;;14.86;66.87
81181;BME280;70650;51.408;7.132;2023-07-13T03:16:15;100429.06;;;14.87;67.06
81181;BME280;70650;51.408;7.132;2023-07-13T03:18:41;100433.75;;;14.83;67.29
81181;BME280;70650;51.408;7.132;2023-07-13T03:21:07;100431.63;;;14.89;67.11
81181;BME280;70650;51.408;7.132;2023-07-13T03:23:33;100425.97;;;14.80;68.11
81181;BME280;70650;51.408;7.132;2023-07-13T03:26:08;100433.94;;;14.80;67.53
81181;BME280;70650;51.408;7.132;2023-07-13T03:28:34;100440.47;;;14.76;68.99
81181;BME280;70650;51.408;7.132;2023-07-13T03:31:03;100440.97;;;14.69;68.52
81181;BME280;70650;51.408;7.132;2023-07-13T03:33:29;100433.97;;;14.68;68.77
81181;BME280;70650;51.408;7.132;2023-07-13T03:35:55;100433.22;;;14.66;68.88
81181;BME280;70650;51.408;7.132;2023-07-13T03:38:20;100445.69;;;14.65;68.65
81181;BME280;70650;51.408;7.132;2023-07-13T03:40:46;100440.38;;;14.65;69.02
81181;BME280;70650;51.408;7.132;2023-07-13T03:43:11;100444.28;;;14.72;68.40
81181;BME280;70650;51.408;7.132;2023-07-13T03:45:40;100450.47;;;14.73;68.85
81181;BME280;70650;51.408;7.132;2023-07-13T03:48:05;100455.91;;;14.71;68.56
81181;BME280;70650;51.408;7.132;2023-07-13T03:50:31;100451.75;;;14.67;69.04
81181;BME280;70650;51.408;7.132;2023-07-13T03:52:57;100458.69;;;14.70;69.00
81181;BME280;70650;51.408;7.132;2023-07-13T03:55:23;100459.72;;;14.67;69.33
81181;BME280;70650;51.408;7.132;2023-07-13T03:57:54;100458.88;;;14.67;69.22
81181;BME280;70650;51.408;7.132;2023-07-13T04:00:22;100464.75;;;14.72;69.35
81181;BME280;70650;51.408;7.132;2023-07-13T04:02:48;100467.28;;;14.73;69.17
81181;BME280;70650;51.408;7.132;2023-07-13T04:05:14;100471.75;;;14.73;69.30
81181;BME280;70650;51.408;7.132;2023-07-13T04:07:40;100469.63;;;14.65;69.50
81181;BME280;70650;51.408;7.132;2023-07-13T04:10:05;100475.06;;;14.64;69.78
81181;BME280;70650;51.408;7.132;2023-07-13T04:12:31;100471.44;;;14.65;70.59
81181;BME280;70650;51.408;7.132;2023-07-13T04:14:56;100470.25;;;14.69;69.52
81181;BME280;70650;51.408;7.132;2023-07-13T04:17:21;100481.13;;;14.66;69.90
81181;BME280;70650;51.408;7.132;2023-07-13T04:19:47;100471.53;;;14.63;70.24
81181;BME280;70650;51.408;7.132;2023-07-13T04:22:13;100461.25;;;14.58;70.21
81181;BME280;70650;51.408;7.132;2023-07-13T04:24:39;100474.13;;;14.65;69.96
81181;BME280;70650;51.408;7.132;2023-07-13T04:27:04;100468.03;;;14.63;70.33
81181;BME280;70650;51.408;7.132;2023-07-13T04:29:30;100482.28;;;14.62;70.27
81181;BME280;70650;51.408;7.132;2023-07-13T04:31:55;100479.09;;;14.56;70.54
81181;BME280;70650;51.408;7.132;2023-07-13T04:34:20;100478.03;;;14.59;70.76
81181;BME280;70650;51.408;7.132;2023-07-13T04:36:45;100484.94;;;14.62;70.84
81181;BME280;70650;51.408;7.132;2023-07-13T04:39:11;100482.53;;;14.58;70.84
81181;BME280;70650;51.408;7.132;2023-07-13T04:41:36;100484.34;;;14.58;71.16
81181;BME280;70650;51.408;7.132;2023-07-13T04:44:01;100482.59;;;14.57;70.86
81181;BME280;70650;51.408;7.132;2023-07-13T04:46:28;100483.56;;;14.69;71.37
81181;BME280;70650;51.408;7.132;2023-07-13T04:48:53;100490.69;;;14.68;70.73
81181;BME280;70650;51.408;7.132;2023-07-13T04:51:18;100482.41;;;14.73;70.01
81181;BME280;70650;51.408;7.132;2023-07-13T04:53:44;100489.13;;;14.66;71.02
81181;BME280;70650;51.408;7.132;2023-07-13T04:56:09;100490.81;;;14.67;70.90
81181;BME280;70650;51.408;7.132;2023-07-13T04:58:35;100487.09;;;14.69;71.11
81181;BME280;70650;51.408;7.132;2023-07-13T05:01:02;100484.44;;;14.69;71.03
81181;BME280;70650;51.408;7.132;2023-07-13T05:03:28;100493.72;;;14.76;71.09
81181;BME280;70650;51.408;7.132;2023-07-13T05:05:59;100491.03;;;14.76;70.86
81181;BME280;70650;51.408;7.132;2023-07-13T05:08:25;100495.81;;;14.84;70.75
81181;BME280;70650;51.408;7.132;2023-07-13T05:10:51;100495.50;;;14.89;70.54
81181;BME280;70650;51.408;7.132;2023-07-13T05:13:16;100502.66;;;14.88;70.84
81181;BME280;70650;51.408;7.132;2023-07-13T05:15:41;100496.16;;;14.92;70.77
81181;BME280;70650;51.408;7.132;2023-07-13T05:18:07;100498.06;;;14.90;70.86
81181;BME280;70650;51.408;7.132;2023-07-13T05:20:32;100500.53;;;14.93;70.94
81181;BME280;70650;51.408;7.132;2023-07-13T05:22:57;100501.38;;;14.94;71.13
81181;BME280;70650;51.408;7.132;2023-07-13T05:25:23;100511.72;;;14.98;70.93
81181;BME280;70650;51.408;7.132;2023-07-13T05:27:48;100509.78;;;15.00;70.97
81181;BME280;70650;51.408;7.132;2023-07-13T05:30:13;100511.47;;;15.01;71.00
81181;BME280;70650;51.408;7.132;2023-07-13T05:32:39;100514.13;;;15.01;71.37
81181;BME280;70650;51.408;7.132;2023-07-13T05:35:04;100516.91;;;15.00;70.98
81181;BME280;70650;51.408;7.132;2023-07-13T05:37:30;100516.59;;;15.04;70.99
81181;BME280;70650;51.408;7.132;2023-07-13T05:39:55;100525.97;;;15.10;71.47
81181;BME280;70650;51.408;7.132;2023-07-13T05:42:21;100522.75;;;15.18;71.01
81181;BME280;70650;51.408;7.132;2023-07-13T05:44:46;100531.72;;;15.17;71.09
81181;BME280;70650;51.408;7.132;2023-07-13T05:47:11;100524.69;;;15.16;71.26
81181;BME280;70650;51.408;7.132;2023-07-13T05:49:48;100521.91;;;15.17;71.16
81181;BME280;70650;51.408;7.132;2023-07-13T05:52:13;100524.03;;;15.25;70.96
81181;BME280;70650;51.408;7.132;2023-07-13T05:54:39;100525.94;;;15.23;71.65
81181;BME280;70650;51.408;7.132;2023-07-13T05:57:04;100526.69;;;15.25;71.18
81181;BME280;70650;51.408;7.132;2023-07-13T05:59:30;100532.13;;;15.23;71.60
81181;BME280;70650;51.408;7.132;2023-07-13T06:01:55;100539.16;;;15.24;71.22
81181;BME280;70650;51.408;7.132;2023-07-13T06:04:20;100538.31;;;15.24;71.49
81181;BME280;70650;51.408;7.132;2023-07-13T06:06:46;100543.44;;;15.27;71.68
81181;BME280;70650;51.408;7.132;2023-07-13T06:09:11;100549.94;;;15.23;72.44
81181;BME280;70650;51.408;7.132;2023-07-13T06:11:36;100555.97;;;15.25;72.02
81181;BME280;70650;51.408;7.132;2023-07-13T06:14:02;100547.47;;;15.32;71.95
81181;BME280;70650;51.408;7.132;2023-07-13T06:16:27;100548.41;;;15.31;72.03
81181;BME280;70650;51.408;7.132;2023-07-13T06:18:52;100545.34;;;15.37;72.31
81181;BME280;70650;51.408;7.132;2023-07-13T06:21:19;100551.59;;;15.36;72.91
81181;BME280;70650;51.408;7.132;2023-07-13T06:23:46;100547.22;;;15.48;71.72
81181;BME280;70650;51.408;7.132;2023-07-13T06:26:15;100560.63;;;15.59;72.25
81181;BME280;70650;51.408;7.132;2023-07-13T06:28:41;100555.53;;;15.69;71.70
81181;BME280;70650;51.408;7.132;2023-07-13T06:31:08;100568.97;;;15.68;72.03
81181;BME280;70650;51.408;7.132;2023-07-13T06:33:34;100566.84;;;15.73;71.40
81181;BME280;70650;51.408;7.132;2023-07-13T06:36:05;100574.44;;;15.66;71.84
81181;BME280;70650;51.408;7.132;2023-07-13T06:38:30;100568.25;;;15.66;71.57
81181;BME280;70650;51.408;7.132;2023-07-13T06:40:56;100573.88;;;15.74;71.62
81181;BME280;70650;51.408;7.132;2023-07-13T06:43:21;100574.50;;;15.77;71.69
81181;BME280;70650;51.408;7.132;2023-07-13T06:45:48;100571.41;;;15.83;71.21
81181;BME280;70650;51.408;7.132;2023-07-13T06:48:19;100574.59;;;15.88;71.38
81181;BME280;70650;51.408;7.132;2023-07-13T06:50:44;100578.16;;;16.00;71.68
81181;BME280;70650;51.408;7.132;2023-07-13T06:53:11;100587.88;;;16.01;70.42
81181;BME280;70650;51.408;7.132;2023-07-13T06:55:37;100583.19;;;15.92;70.21
81181;BME280;70650;51.408;7.132;2023-07-13T06:58:02;100581.81;;;15.86;70.74
81181;BME280;70650;51.408;7.132;2023-07-13T07:00:28;100589.50;;;15.91;71.24
81181;BME280;70650;51.408;7.132;2023-07-13T07:02:53;100593.81;;;16.05;71.21
81181;BME280;70650;51.408;7.132;2023-07-13T07:05:19;100583.25;;;16.03;70.88
81181;BME280;70650;51.408;7.132;2023-07-13T07:07:50;100599.97;;;16.18;70.57
81181;BME280;70650;51.408;7.132;2023-07-13T07:10:16;100595.81;;;16.14;70.07
81181;BME280;70650;51.408;7.132;2023-07-13T07:12:41;100586.72;;;16.16;70.45
81181;BME280;70650;51.408;7.132;2023-07-13T07:15:07;100591.78;;;16.32;70.02
81181;BME280;70650;51.408;7.132;2023-07-13T07:17:32;100595.53;;;16.30;69.89
81181;BME280;70650;51.408;7.132;2023-07-13T07:19:57;100594.56;;;16.31;69.87
81181;BME280;70650;51.408;7.132;2023-07-13T07:22:23;100597.75;;;16.36;70.32
81181;BME280;70650;51.408;7.132;2023-07-13T07:24:51;100591.75;;;16.56;69.79
81181;BME280;70650;51.408;7.132;2023-07-13T07:27:16;100588.59;;;16.75;69.27
81181;BME280;70650;51.408;7.132;2023-07-13T07:29:41;100593.59;;;16.80;69.93
81181;BME280;70650;51.408;7.132;2023-07-13T07:32:07;100598.75;;;16.70;68.90
81181;BME280;70650;51.408;7.132;2023-07-13T07:34:32;100597.84;;;16.58;68.88
81181;BME280;70650;51.408;7.132;2023-07-13T07:37:01;100602.91;;;16.50;69.57
81181;BME280;70650;51.408;7.132;2023-07-13T07:39:27;100602.47;;;16.67;70.01
81181;BME280;70650;51.408;7.132;2023-07-13T07:41:52;100605.97;;;16.81;69.73
81181;BME280;70650;51.408;7.132;2023-07-13T07:44:18;100605.38;;;16.88;70.17
81181;BME280;70650;51.408;7.132;2023-07-13T07:46:43;100607.06;;;16.78;69.43
81181;BME280;70650;51.408;7.132;2023-07-13T07:49:08;100601.31;;;17.07;68.79
81181;BME280;70650;51.408;7.132;2023-07-13T07:51:33;100602.41;;;17.04;68.44
81181;BME280;70650;51.408;7.132;2023-07-13T07:53:59;100607.13;;;17.12;67.82
81181;BME280;70650;51.408;7.132;2023-07-13T07:56:25;100608.59;;;17.05;68.35
81181;BME280;70650;51.408;7.132;2023-07-13T07:58:50;100616.75;;;17.14;68.22
81181;BME280;70650;51.408;7.132;2023-07-13T08:01:15;100615.06;;;17.13;68.54
81181;BME280;70650;51.408;7.132;2023-07-13T08:03:41;100609.28;;;17.42;68.07
81181;BME280;70650;51.408;7.132;2023-07-13T08:06:06;100605.97;;;17.61;67.24
81181;BME280;70650;51.408;7.132;2023-07-13T08:08:34;100606.34;;;17.56;66.19
81181;BME280;70650;51.408;7.132;2023-07-13T08:11:02;100605.00;;;17.62;67.26
81181;BME280;70650;51.408;7.132;2023-07-13T08:13:28;100608.78;;;17.70;66.01
81181;BME280;70650;51.408;7.132;2023-07-13T08:15:53;100607.56;;;17.63;66.58
81181;BME280;70650;51.408;7.132;2023-07-13T08:18:18;100603.06;;;17.86;66.54
81181;BME280;70650;51.408;7.132;2023-07-13T08:20:44;100602.00;;;17.78;65.89
81181;BME280;70650;51.408;7.132;2023-07-13T08:23:10;100606.13;;;17.82;66.76
81181;BME280;70650;51.408;7.132;2023-07-13T08:25:35;100596.13;;;17.95;66.46
81181;BME280;70650;51.408;7.132;2023-07-13T08:28:02;100601.72;;;17.58;65.84
81181;BME280;70650;51.408;7.132;2023-07-13T08:30:28;100599.16;;;17.57;66.21
81181;BME280;70650;51.408;7.132;2023-07-13T08:32:53;100604.91;;;17.86;65.50
81181;BME280;70650;51.408;7.132;2023-07-13T08:35:19;100602.47;;;17.94;65.25
81181;BME280;70650;51.408;7.132;2023-07-13T08:37:44;100608.19;;;17.89;65.20
81181;BME280;70650;51.408;7.132;2023-07-13T08:40:11;100605.59;;;18.10;65.22
81181;BME280;70650;51.408;7.132;2023-07-13T08:42:39;100600.38;;;17.97;64.21
81181;BME280;70650;51.408;7.132;2023-07-13T08:48:13;100602.84;;;18.44;63.46
81181;BME280;70650;51.408;7.132;2023-07-13T08:50:51;100601.81;;;18.67;64.57
81181;BME280;70650;51.408;7.132;2023-07-13T08:53:21;100606.25;;;18.78;63.70
81181;BME280;70650;51.408;7.132;2023-07-13T08:55:51;100602.06;;;18.53;63.23
81181;BME280;70650;51.408;7.132;2023-07-13T08:58:20;100596.03;;;18.40;63.59
81181;BME280;70650;51.408;7.132;2023-07-13T09:04:11;100589.31;;;18.77;61.78
81181;BME280;70650;51.408;7.132;2023-07-13T09:06:55;100586.78;;;18.65;62.51
81181;BME280;70650;51.408;7.132;2023-07-13T09:12:11;100600.06;;;18.66;61.89
81181;BME280;70650;51.408;7.132;2023-07-13T09:14:45;100590.75;;;18.82;63.56
81181;BME280;70650;51.408;7.132;2023-07-13T09:17:17;100600.75;;;18.79;61.68
81181;BME280;70650;51.408;7.132;2023-07-13T09:19:43;100599.81;;;18.26;63.66
81181;BME280;70650;51.408;7.132;2023-07-13T09:22:15;100616.66;;;18.17;64.47
81181;BME280;70650;51.408;7.132;2023-07-13T09:24:57;100609.50;;;18.06;64.82
81181;BME280;70650;51.408;7.132;2023-07-13T09:27:31;100607.91;;;18.04;64.74
81181;BME280;70650;51.408;7.132;2023-07-13T09:32:42;100591.66;;;18.39;63.48
81181;BME280;70650;51.408;7.132;2023-07-13T09:35:17;100595.00;;;18.52;63.40
81181;BME280;70650;51.408;7.132;2023-07-13T09:37:45;100604.66;;;18.75;63.15
81181;BME280;70650;51.408;7.132;2023-07-13T09:40:21;100607.09;;;18.99;62.64
81181;BME280;70650;51.408;7.132;2023-07-13T09:42:52;100605.25;;;19.00;61.88
81181;BME280;70650;51.408;7.132;2023-07-13T09:45:29;100608.16;;;19.08;61.34
81181;BME280;70650;51.408;7.132;2023-07-13T09:48:00;100607.47;;;19.16;61.47
81181;BME280;70650;51.408;7.132;2023-07-13T09:50:28;100608.34;;;19.16;62.35
81181;BME280;70650;51.408;7.132;2023-07-13T09:52:54;100616.75;;;19.32;60.32
81181;BME280;70650;51.408;7.132;2023-07-13T09:57:49;100609.69;;;19.31;62.98
81181;BME280;70650;51.408;7.132;2023-07-13T10:00:25;100609.19;;;19.68;60.72
81181;BME280;70650;51.408;7.132;2023-07-13T10:03:09;100615.19;;;19.81;59.23
81181;BME280;70650;51.408;7.132;2023-07-13T10:05:42;100615.50;;;19.88;60.75
81181;BME280;70650;51.408;7.132;2023-07-13T10:08:18;100617.03;;;19.91;59.73
81181;BME280;70650;51.408;7.132;2023-07-13T10:10:45;100618.66;;;20.03;60.90
81181;BME280;70650;51.408;7.132;2023-07-13T10:13:32;100623.00;;;19.94;59.16
81181;BME280;70650;51.408;7.132;2023-07-13T10:15:59;100618.38;;;19.66;60.57
81181;BME280;70650;51.408;7.132;2023-07-13T10:18:25;100624.09;;;19.82;60.96
81181;BME280;70650;51.408;7.132;2023-07-13T10:20:58;100621.31;;;19.63;58.61
81181;BME280;70650;51.408;7.132;2023-07-13T10:23:30;100626.56;;;19.43;59.04
81181;BME280;70650;51.408;7.132;2023-07-13T10:25:58;100629.06;;;19.87;59.44
81181;BME280;70650;51.408;7.132;2023-07-13T10:28:32;100618.75;;;19.92;58.38
81181;BME280;70650;51.408;7.132;2023-07-13T10:31:01;100625.81;;;19.93;57.44
81181;BME280;70650;51.408;7.132;2023-07-13T10:33:27;100618.75;;;19.92;58.58
81181;BME280;70650;51.408;7.132;2023-07-13T10:36:01;100621.69;;;19.58;58.38
81181;BME280;70650;51.408;7.132;2023-07-13T10:38:29;100627.50;;;19.94;59.38
81181;BME280;70650;51.408;7.132;2023-07-13T10:41:02;100634.31;;;19.98;57.61
81181;BME280;70650;51.408;7.132;2023-07-13T10:43:39;100634.91;;;19.50;58.79
81181;BME280;70650;51.408;7.132;2023-07-13T10:46:09;100642.78;;;19.42;58.28
81181;BME280;70650;51.408;7.132;2023-07-13T10:48:36;100634.44;;;19.35;59.36
81181;BME280;70650;51.408;7.132;2023-07-13T10:51:03;100639.13;;;19.22;59.45
81181;BME280;70650;51.408;7.132;2023-07-13T10:53:36;100634.28;;;19.16;59.83
81181;BME280;70650;51.408;7.132;2023-07-13T10:58:44;100643.72;;;19.31;59.60
81181;BME280;70650;51.408;7.132;2023-07-13T11:03:56;100639.19;;;19.52;60.08
81181;BME280;70650;51.408;7.132;2023-07-13T11:08:57;100654.88;;;19.88;60.21
81181;BME280;70650;51.408;7.132;2023-07-13T11:13:59;100655.19;;;19.43;59.12
81181;BME280;70650;51.408;7.132;2023-07-13T11:16:44;100646.03;;;19.45;57.69
81181;BME280;70650;51.408;7.132;2023-07-13T11:27:40;100639.38;;;20.01;58.41
81181;BME280;70650;51.408;7.132;2023-07-13T11:30:31;100636.00;;;19.99;56.87
81181;BME280;70650;51.408;7.132;2023-07-13T11:38:39;100637.16;;;20.06;54.68
81181;BME280;70650;51.408;7.132;2023-07-13T11:41:26;100627.09;;;19.98;55.83
81181;BME280;70650;51.408;7.132;2023-07-13T11:43:55;100628.31;;;20.34;56.35
81181;BME280;70650;51.408;7.132;2023-07-13T11:46:26;100619.31;;;20.55;53.45
81181;BME280;70650;51.408;7.132;2023-07-13T11:48:53;100627.81;;;20.79;54.55
81181;BME280;70650;51.408;7.132;2023-07-13T11:51:24;100625.97;;;20.89;51.96
81181;BME280;70650;51.408;7.132;2023-07-13T11:53:53;100617.06;;;20.79;52.67
81181;BME280;70650;51.408;7.132;2023-07-13T11:56:19;100616.66;;;20.55;52.64
81181;BME280;70650;51.408;7.132;2023-07-13T11:58:51;100614.66;;;20.57;52.00
81181;BME280;70650;51.408;7.132;2023-07-13T12:01:24;100613.53;;;20.79;51.51
81181;BME280;70650;51.408;7.132;2023-07-13T12:03:51;100613.06;;;20.93;51.40
81181;BME280;70650;51.408;7.132;2023-07-13T12:06:30;100618.41;;;21.32;52.20
81181;BME280;70650;51.408;7.132;2023-07-13T12:08:58;100607.22;;;21.27;50.55
81181;BME280;70650;51.408;7.132;2023-07-13T12:11:25;100612.03;;;21.42;48.75
81181;BME280;70650;51.408;7.132;2023-07-13T12:13:51;100602.66;;;21.47;49.90
81181;BME280;70650;51.408;7.132;2023-07-13T12:16:30;100599.56;;;21.41;49.69
81181;BME280;70650;51.408;7.132;2023-07-13T12:18:57;100618.22;;;21.53;48.83
81181;BME280;70650;51.408;7.132;2023-07-13T12:21:38;100603.91;;;21.62;48.03
81181;BME280;70650;51.408;7.132;2023-07-13T12:24:05;100601.22;;;21.62;48.85
81181;BME280;70650;51.408;7.132;2023-07-13T12:26:38;100609.78;;;21.75;49.01
81181;BME280;70650;51.408;7.132;2023-07-13T12:29:06;100609.97;;;21.91;46.59
81181;BME280;70650;51.408;7.132;2023-07-13T12:31:41;100610.47;;;21.77;47.80
81181;BME280;70650;51.408;7.132;2023-07-13T12:34:15;100599.56;;;21.79;48.30
81181;BME280;70650;51.408;7.132;2023-07-13T12:36:50;100612.59;;;22.11;47.18
81181;BME280;70650;51.408;7.132;2023-07-13T12:39:34;100613.03;;;21.79;48.25
81181;BME280;70650;51.408;7.132;2023-07-13T12:42:28;100606.50;;;21.81;47.14
81181;BME280;70650;51.408;7.132;2023-07-13T12:44:57;100591.34;;;21.80;47.66
81181;BME280;70650;51.408;7.132;2023-07-13T12:47:23;100599.44;;;21.70;48.09
81181;BME280;70650;51.408;7.132;2023-07-13T12:49:53;100602.31;;;22.24;49.08
81181;BME280;70650;51.408;7.132;2023-07-13T12:52:27;100600.94;;;22.56;45.33
81181;BME280;70650;51.408;7.132;2023-07-13T12:55:04;100600.03;;;22.47;46.81
81181;BME280;70650;51.408;7.132;2023-07-13T12:57:30;100589.06;;;22.13;46.77
81181;BME280;70650;51.408;7.132;2023-07-13T12:59:55;100604.59;;;21.91;47.28
81181;BME280;70650;51.408;7.132;2023-07-13T13:02:32;100594.69;;;21.92;47.47
81181;BME280;70650;51.408;7.132;2023-07-13T13:05:00;100599.09;;;21.56;48.03
81181;BME280;70650;51.408;7.132;2023-07-13T13:07:26;100595.88;;;21.42;47.19
81181;BME280;70650;51.408;7.132;2023-07-13T13:09:52;100612.59;;;21.27;47.71
81181;BME280;70650;51.408;7.132;2023-07-13T13:12:19;100611.22;;;21.03;48.09
81181;BME280;70650;51.408;7.132;2023-07-13T13:14:44;100619.59;;;20.81;47.67
81181;BME280;70650;51.408;7.132;2023-07-13T13:17:29;100621.72;;;20.58;48.65
81181;BME280;70650;51.408;7.132;2023-07-13T13:19:55;100621.97;;;20.45;50.09
81181;BME280;70650;51.408;7.132;2023-07-13T13:22:22;100623.44;;;20.49;51.57
81181;BME280;70650;51.408;7.132;2023-07-13T13:24:47;100624.94;;;20.42;50.78
81181;BME280;70650;51.408;7.132;2023-07-13T13:27:18;100637.78;;;20.38;51.24
81181;BME280;70650;51.408;7.132;2023-07-13T13:29:45;100640.63;;;20.37;51.85
81181;BME280;70650;51.408;7.132;2023-07-13T13:32:14;100645.38;;;20.14;55.00
81181;BME280;70650;51.408;7.132;2023-07-13T13:34:40;100642.91;;;20.01;53.02